Tiempo atmosférico en la estación meteorológica de Cabo de Gata, Almería (42 m.)



Fecha
DESCASC
Temp. máxima en grados centígrados (hora)
DESCASC
Temp. mínima en grados centígrados (hora)
DESCASC
Temp. media en grados centígrados
DESCASC
Racha de viento máxima en m/sg (hora)
DESCASC
Velocidad máxima media en intervalos de 10 minutos(hora)
DESCASC
Precipitaciones diarias en mm
DESCASC
Precipitaciones de 00:00 a 06:00 en mm
DESCASC
Precipitaciones de 06:00 a 12:00 en mm
DESCASC
Precipitaciones de 12:00 a 18:00 en mm
DESCASC
Precipitaciones de 18:00 a 24:00 en mm
DESCASC
13-10-2019 26.3 (13:10) 20.7 (07:40) 23.5 10.28 (18:10) 8.33 (18:10) 0 0 0 0 0
12-10-2019 25.7 (12:30) 21.1 (07:50) 23.4 15.56 (18:30) 11.39 (18:10) 0 0 0 0 0
11-10-2019 25.4 (12:30) 21.7 (06:30) 23.6 16.94 (15:30) 11.11 (18:00) 0 0 0 0 0
10-10-2019 25.9 (12:10) 21.9 (00:00) 23.9 17.5 (20:20) 12.5 (18:50) 0 0 0 0 0
09-10-2019 26 (12:10) 21 (00:00) 23.5 7.5 (00:20) 5.83 (18:20) 0 0 0 0 0
08-10-2019 24.4 (11:10) 22.1 (00:00) 23.3 13.33 (04:40) 10 (18:00) 0 0 0 0 0
07-10-2019 25.4 (16:00) 19.4 (00:00) 22.4 13.61 (22:20) 10 (22:30) 0 0 0 0 0
06-10-2019 25.9 (15:40) 18.8 (00:00) 22.3 7.22 (22:30) 4.72 (23:50) -- -- -- -- --
05-10-2019 24.8 (16:10) 19 (00:00) 21.9 7.78 (12:40) 5 (10:50) -- -- -- -- --
04-10-2019 27.1 (12:00) 19.6 (00:00) 23.4 6.67 (06:20) 4.44 (01:50) -- -- -- -- --
03-10-2019 27.3 (13:50) 20.9 (00:00) 24.1 12.22 (01:40) 8.61 (01:40) -- -- -- -- --
02-10-2019 27.2 (00:00) 22.4 (00:00) 24.8 11.67 (05:10) 8.33 (23:20) -- -- -- -- --
01-10-2019 27.2 (23:59) 19.3 (00:00) 23.3 13.06 (22:10) 7.5 (22:10) -- 0 0 -- --
30-09-2019 26.4 (14:10) 21.7 (00:00) 24.1 8.61 (04:40) 5.56 (04:20) 0 0 0 0 0
29-09-2019 27.8 (14:00) 21.9 (00:00) 24.8 7.78 (09:00) 5.28 (09:00) 0 0 0 0 0
28-09-2019 27.3 (14:00) 20.6 (00:00) 23.9 14.44 (16:40) 10.28 (16:40) 0 0 0 0 0
27-09-2019 27.2 (13:50) 21.7 (00:00) 24.5 6.67 (23:50) 4.44 (23:30) 0 0 0 0 0
26-09-2019 26.2 (12:30) 22.6 (00:00) 24.4 15 (15:10) 10.83 (15:00) 0 0 0 0 0
25-09-2019 27.4 (13:50) 20.7 (00:00) 24.1 9.17 (00:40) 6.94 (00:20) -- -- -- -- --
24-09-2019 28.3 (14:20) 21.3 (00:00) 24.8 8.89 (23:59) 6.67 (23:59) -- -- -- -- --
23-09-2019 26.7 (16:00) 21.5 (00:00) 24.1 8.33 (00:30) 6.39 (13:20) -- -- -- -- --
22-09-2019 26.4 (11:50) 22.7 (00:00) 24.6 13.61 (10:10) 9.17 (09:30) -- -- -- -- --
21-09-2019 28.7 (14:00) 23.4 (00:00) 26.1 11.11 (01:40) 5.83 (02:10) -- -- -- -- --
20-09-2019 26.9 (14:50) 22.9 (00:00) 24.9 16.39 (21:10) 10 (16:10) -- -- -- -- --
19-09-2019 26.9 (15:50) 22.2 (00:00) 24.6 8.33 (20:10) 6.11 (19:30) -- -- -- -- --
18-09-2019 28.6 (14:40) 22.9 (00:00) 25.8 7.5 (08:10) 5 (05:30) -- -- -- -- --
17-09-2019 26.6 (16:30) 23.4 (00:00) 25 17.22 (13:30) 11.11 (13:30) -- -- -- -- --
16-09-2019 28.1 (13:20) 23.3 (00:00) 25.7 6.11 (10:10) 4.72 (10:10) -- -- -- -- --

Gráficas

Temp. máximas Temp. mínimas Temp. medias Precipitaciones Rachas de viento máximas Velocidades máximas media en intervalos de 10 minutos

Datos horarios

Fecha y hora oficial Temperatura (ºC) Velocidad del viento (km/h) Dirección del viento Racha (km/h) Dirección de racha Precipitación (mm) Presión (hPa) Tendencia (hPa) Humedad (%)
2019-10-15 23:00:00 18.1 3 Norte 12 Norte 0 -- -- 58
2019-10-15 22:00:00 18.3 9 Norte 15 Norte 0 -- -- 62
2019-10-15 21:00:00 18.9 6 Noroeste 13 Noroeste 0 -- -- 60
2019-10-15 20:00:00 19.7 4 Sudoeste 10 Oeste 0 -- -- 58
2019-10-15 19:00:00 20.3 5 Sur 11 Sur 0 -- -- 53
2019-10-15 18:00:00 20.6 4 Sudoeste 13 Sudoeste 0 -- -- 55
2019-10-15 17:00:00 21.2 5 Sudoeste 15 Sudoeste 0 -- -- 53
2019-10-15 16:00:00 22.8 5 Oeste 17 Oeste 0 -- -- 49
2019-10-15 15:00:00 22.7 6 Sudoeste 15 Oeste 0 -- -- 49
2019-10-15 14:00:00 23.1 5 Sur 13 Oeste 0 -- -- 50
2019-10-15 13:00:00 22.7 6 Sur 13 Sudoeste 0 -- -- 50
2019-10-15 12:00:00 22.7 5 Sur 13 Sur 0 -- -- 52
2019-10-15 11:00:00 22.6 4 Oeste 18 Oeste 0 -- -- 50
2019-10-15 10:00:00 21 9 Noroeste 19 Noroeste 0 -- -- 52
2019-10-15 09:00:00 18.7 11 Norte 27 Noroeste 0 -- -- 52
2019-10-15 08:00:00 19.3 24 Noroeste 41 Noroeste 0 -- -- 59
2019-10-15 07:00:00 19.8 27 Oeste 50 Oeste 0 -- -- 67
2019-10-15 06:00:00 20 26 Oeste 48 Oeste 0 -- -- 72
2019-10-15 05:00:00 20.3 37 Oeste 52 Oeste 0 -- -- 75
2019-10-15 04:00:00 20.5 26 Oeste 50 Sur 0 -- -- 76
2019-10-15 03:00:00 20.6 28 Oeste 55 Oeste 0 -- -- 74
2019-10-15 02:00:00 21 41 Oeste 65 Oeste 0 -- -- 70
2019-10-15 01:00:00 21.2 37 Oeste 60 Oeste 0 -- -- 71
2019-10-15 00:00:00 21.3 41 Oeste 59 Oeste 0 -- -- 75
2019-10-14 23:00:00 21.2 41 Oeste 70 Oeste 0 -- -- 72
2019-10-14 22:00:00 21.5 37 Oeste 72 Oeste 0 -- -- 77
2019-10-14 21:00:00 21.6 44 Oeste 78 Oeste 0 -- -- 78
2019-10-14 20:00:00 21.6 37 Oeste 71 Oeste 0 -- -- 77
2019-10-14 19:00:00 22.1 40 Oeste 70 Oeste 0 -- -- 75
2019-10-14 18:00:00 22.5 39 Oeste 65 Sudoeste 0 -- -- 71
2019-10-14 17:00:00 23.2 36 Oeste 58 Sudoeste 0 -- -- 71
2019-10-14 16:00:00 23.7 23 Oeste 59 Oeste 0 -- -- 72
2019-10-14 15:00:00 23.7 36 Oeste 64 Oeste 0 -- -- 71
2019-10-14 14:00:00 24.6 38 Oeste 55 Oeste 0 -- -- 70
2019-10-14 13:00:00 23.7 31 Oeste 57 Oeste 0 -- -- 72
2019-10-14 12:00:00 24 21 Oeste 40 Oeste 0 -- -- 75
2019-10-14 11:00:00 23.9 15 Oeste 37 Oeste 0 -- -- 79
2019-10-14 10:00:00 23.2 18 Oeste 33 Oeste 0 -- -- 81
2019-10-14 09:00:00 22.5 15 Oeste 27 Oeste 0 -- -- 82
2019-10-14 08:00:00 22.3 7 Sur 28 Oeste 0 -- -- 80
2019-10-14 07:00:00 22.5 12 Noroeste 33 Oeste 0 -- -- 72
2019-10-14 06:00:00 22.8 2 Este 9 Oeste 0 -- -- 56
2019-10-14 05:00:00 23.4 4 Nordeste 25 Nordeste 0 -- -- 55
2019-10-14 04:00:00 23.4 5 Oeste 35 Este 0 -- -- 60
2019-10-14 03:00:00 23.1 5 Noroeste 25 Noroeste 0 -- -- 66
2019-10-14 02:00:00 23.1 3 Oeste 38 Este 0 -- -- 68
2019-10-14 01:00:00 22.6 3 Sudeste 21 Este 0 -- -- 74
2019-10-14 00:00:00 22.8 8 Nordeste 18 Este 0 -- -- 80
2019-10-13 23:00:00 22.9 9 Nordeste 26 Nordeste 0 -- -- 78
2019-10-13 22:00:00 23.1 21 Nordeste 33 Nordeste 0 -- -- 78
2019-10-13 21:00:00 23.3 7 Este 23 Este 0 -- -- 75
2019-10-13 20:00:00 23.4 7 Este 29 Este 0 -- -- 75
2019-10-13 19:00:00 23.6 19 Este 37 Este 0 -- -- 76
2019-10-13 18:00:00 23.7 27 Este 34 Este 0 -- -- 75
2019-10-13 17:00:00 23.6 20 Este 34 Sudeste 0 -- -- 77
2019-10-13 16:00:00 24.6 13 Este 21 Este 0 -- -- 74
2019-10-13 15:00:00 25.3 9 Sudeste 21 Este 0 -- -- 72
2019-10-13 14:00:00 25.6 12 Este 19 Este 0 -- -- 70
2019-10-13 13:00:00 26.2 6 Sudeste 13 Este 0 -- -- 71
2019-10-13 12:00:00 25.8 3 Sudoeste 12 Oeste 0 -- -- 75
2019-10-13 11:00:00 24.3 3 Sudeste 18 Oeste 0 -- -- 80
2019-10-13 10:00:00 22.1 6 Noroeste 15 Oeste 0 -- -- 85
2019-10-13 09:00:00 21.3 7 Oeste 12 Norte 0 -- -- 86
2019-10-13 08:00:00 20.9 6 Norte 13 Norte 0 -- -- 86
2019-10-13 07:00:00 21.3 9 Norte 21 Noroeste 0 -- -- 86
2019-10-13 06:00:00 21.5 13 Noroeste 24 Noroeste 0 -- -- 86
2019-10-13 05:00:00 21.6 8 Noroeste 15 Noroeste 0 -- -- 86
2019-10-13 04:00:00 21.8 8 Noroeste 18 Noroeste 0 -- -- 86
2019-10-13 03:00:00 21.7 10 Norte 15 Norte 0 -- -- 85
2019-10-13 02:00:00 21.9 9 Norte 18 Noroeste 0 -- -- 84
2019-10-13 01:00:00 22.4 12 Noroeste 19 Noroeste 0 -- -- 83
2019-10-13 00:00:00 22.7 4 Norte 14 Norte 0 -- -- 81
2019-10-12 23:00:00 23.5 3 Oeste 20 Sudoeste 0 -- -- 78
2019-10-12 22:00:00 24.2 12 Oeste 24 Noroeste 0 -- -- 73
2019-10-12 21:00:00 24.3 5 Sudeste 28 Este 0 -- -- 69
2019-10-12 20:00:00 24.1 15 Este 39 Este 0 -- -- 73
2019-10-12 19:00:00 24.3 33 Este 56 Este 0 -- -- 74
2019-10-12 18:00:00 24.4 40 Este 55 Este 0 -- -- 73
2019-10-12 17:00:00 24.9 30 Este 47 Este 0 -- -- 72
2019-10-12 16:00:00 25.3 28 Este 49 Nordeste 0 -- -- 70
2019-10-12 15:00:00 24.9 35 Este 52 Este 0 -- -- 71
2019-10-12 14:00:00 25.1 34 Este 42 Este 0 -- -- 70
2019-10-12 13:00:00 25.5 25 Este 39 Este 0 -- -- 69
2019-10-12 12:00:00 25.3 20 Este 35 Este 0 -- -- 71
2019-10-12 11:00:00 24.3 19 Este 40 Este 0 -- -- 75
2019-10-12 10:00:00 23 18 Este 29 Este 0 -- -- 76
2019-10-12 09:00:00 22.1 10 Nordeste 21 Nordeste 0 -- -- 76
2019-10-12 08:00:00 21.3 6 Norte 13 Norte 0 -- -- 74
2019-10-12 07:00:00 21.5 11 Norte 14 Norte 0 -- -- 75
2019-10-12 06:00:00 21.5 5 Noroeste 11 Norte 0 -- -- 76
2019-10-12 05:00:00 21.8 4 Norte 12 Nordeste 0 -- -- 76
2019-10-12 04:00:00 21.9 11 Nordeste 14 Nordeste 0 -- -- 80
2019-10-12 03:00:00 21.7 5 Noroeste 8 Norte 0 -- -- 80
2019-10-12 02:00:00 22.4 0 Calma 9 Noroeste 0 -- -- 79
2019-10-12 01:00:00 22.8 4 Norte 23 Nordeste 0 -- -- 79
2019-10-12 00:00:00 22.9 11 Nordeste 23 Nordeste 0 -- -- 80
2019-10-11 23:00:00 23.1 9 Noroeste 29 Este 0 -- -- 79
2019-10-11 22:00:00 23.2 9 Nordeste 48 Este 0 -- -- 77
2019-10-11 21:00:00 23.3 34 Nordeste 56 Nordeste 0 -- -- 75
2019-10-11 20:00:00 23.6 23 Nordeste 49 Nordeste 0 -- -- 73
2019-10-11 19:00:00 23.7 32 Nordeste 60 Nordeste 0 -- -- 72
2019-10-11 18:00:00 24.1 40 Nordeste 55 Nordeste 0 -- -- 69
2019-10-11 17:00:00 24.5 32 Este 50 Este 0 -- -- 68
2019-10-11 16:00:00 25.4 33 Este 61 Este 0 -- -- 65
2019-10-11 15:00:00 25.2 31 Nordeste 59 Nordeste 0 -- -- 63
2019-10-11 14:00:00 25.1 19 Nordeste 53 Nordeste 0 -- -- 64
2019-10-11 13:00:00 25.1 19 Nordeste 55 Nordeste 0 -- -- 63
2019-10-11 12:00:00 25 28 Nordeste 53 Nordeste 0 -- -- 64
2019-10-11 11:00:00 24.4 28 Nordeste 59 Nordeste 0 -- -- 65
2019-10-11 10:00:00 23.3 19 Nordeste 40 Norte 0 -- -- 67
2019-10-11 09:00:00 22.7 17 Norte 39 Nordeste 0 -- -- 66
2019-10-11 08:00:00 22 10 Nordeste 29 Nordeste 0 -- -- 67
2019-10-11 07:00:00 21.8 6 Oeste 23 Nordeste 0 -- -- 69
2019-10-11 06:00:00 22 5 Noroeste 33 Nordeste 0 -- -- 71
2019-10-11 05:00:00 22.3 14 Norte 33 Nordeste 0 -- -- 71
2019-10-11 04:00:00 22.4 14 Nordeste 39 Nordeste 0 -- -- 72
2019-10-11 03:00:00 22.3 18 Nordeste 40 Nordeste 0 -- -- 76
2019-10-11 02:00:00 22.5 20 Nordeste 41 Nordeste 0 -- -- 76
2019-10-11 01:00:00 22.7 21 Nordeste 42 Este 0 -- -- 76
2019-10-11 00:00:00 22.7 21 Nordeste 42 Nordeste 0 -- -- 76
2019-10-10 23:00:00 22.8 17 Nordeste 42 Este 0 -- -- 76
2019-10-10 22:00:00 22.9 18 Nordeste 54 Nordeste 0 -- -- 75
2019-10-10 21:00:00 22.9 33 Nordeste 63 Nordeste 0 -- -- 74
2019-10-10 20:00:00 23.1 35 Nordeste 62 Nordeste 0 -- -- 73
2019-10-10 19:00:00 23.5 42 Este 61 Nordeste 0 -- -- 71
2019-10-10 18:00:00 24 39 Nordeste 55 Nordeste 0 -- -- 69
2019-10-10 17:00:00 24.3 26 Este 55 Este 0 -- -- 69
2019-10-10 16:00:00 24.9 25 Este 57 Este 0 -- -- 67
2019-10-10 15:00:00 25.1 33 Este 56 Este 0 -- -- 64
2019-10-10 14:00:00 25.6 27 Este 50 Nordeste 0 -- -- 61
2019-10-10 13:00:00 25.7 25 Este 52 Nordeste 0 -- -- 62
2019-10-10 12:00:00 25.8 17 Este 51 Nordeste 0 -- -- 63
2019-10-10 11:00:00 24.6 21 Nordeste 41 Nordeste 0 -- -- 67
2019-10-10 10:00:00 23.8 19 Nordeste 44 Nordeste 0 -- -- 72
2019-10-10 09:00:00 22.6 16 Nordeste 35 Nordeste 0 -- -- 76
2019-10-10 08:00:00 22.2 9 Nordeste 28 Nordeste 0 -- -- 77
2019-10-10 07:00:00 22.3 14 Nordeste 35 Nordeste 0 -- -- 77
2019-10-10 06:00:00 22.3 8 Nordeste 28 Este 0 -- -- 78
2019-10-10 05:00:00 22.1 13 Nordeste 42 Nordeste 0 -- -- 81
2019-10-10 04:00:00 22 5 Norte 37 Este 0 -- -- 81
2019-10-10 03:00:00 22 18 Nordeste 37 Este 0 -- -- 82
2019-10-10 02:00:00 22 7 Este 24 Nordeste 0 -- -- 81
2019-10-10 01:00:00 21.9 8 Nordeste 14 Este 0 -- -- 80
2019-10-10 00:00:00 22 8 Nordeste 14 Nordeste 0 -- -- 79
2019-10-09 23:00:00 21.9 7 Nordeste 19 Nordeste 0 -- -- 78
2019-10-09 22:00:00 22 13 Nordeste 18 Este 0 -- -- 79
2019-10-09 21:00:00 21.9 12 Nordeste 21 Este 0 -- -- 80
2019-10-09 20:00:00 22.1 16 Este 21 Este 0 -- -- 80
2019-10-09 19:00:00 22.3 19 Este 25 Este 0 -- -- 78
2019-10-09 18:00:00 22.7 18 Este 24 Este 0 -- -- 76
2019-10-09 17:00:00 23.6 10 Este 19 Este 0 -- -- 73
2019-10-09 16:00:00 24.5 11 Este 21 Este 0 -- -- 70
2019-10-09 15:00:00 24.8 12 Este 19 Este 0 -- -- 68
2019-10-09 14:00:00 25.4 11 Este 17 Sudeste 0 -- -- 68
2019-10-09 13:00:00 25.3 9 Este 17 Este 0 -- -- 68
2019-10-09 12:00:00 25.9 5 Sudeste 9 Este 0 -- -- 67
2019-10-09 11:00:00 24.8 3 Sudoeste 8 Noroeste 0 -- -- 72
2019-10-09 10:00:00 22.8 5 Oeste 9 Noroeste 0 -- -- 79
2019-10-09 09:00:00 21.4 2 Norte 9 Nordeste 0 -- -- 80
2019-10-09 08:00:00 21.1 7 Nordeste 12 Nordeste 0 -- -- 80
2019-10-09 07:00:00 21.1 6 Nordeste 10 Este 0 -- -- 79
2019-10-09 06:00:00 21.2 5 Nordeste 12 Nordeste 0 -- -- 79
2019-10-09 05:00:00 21.3 8 Este 12 Nordeste 0 -- -- 79
2019-10-09 04:00:00 21.2 5 Norte 8 Norte 0 -- -- 77
2019-10-09 03:00:00 21.6 5 Norte 14 Nordeste 0 -- -- 75
2019-10-09 02:00:00 21.9 8 Este 14 Este 0 -- -- 73
2019-10-09 01:00:00 22.1 6 Nordeste 27 Nordeste 0 -- -- 72
2019-10-09 00:00:00 22.2 14 Nordeste 26 Nordeste 0 -- -- 67
2019-10-08 23:00:00 22.4 5 Nordeste 24 Nordeste 0 -- -- 51
2019-10-08 22:00:00 22.5 9 Nordeste 32 Nordeste 0 -- -- 53
2019-10-08 21:00:00 22.6 10 Nordeste 27 Nordeste 0 -- -- 55
2019-10-08 20:00:00 22.7 17 Este 32 Este 0 -- -- 58
2019-10-08 19:00:00 22.8 20 Este 44 Este 0 -- -- 66
2019-10-08 18:00:00 22.7 36 Este 46 Este 0 -- -- 64
2019-10-08 17:00:00 23.1 27 Este 40 Sudeste 0 -- -- 65
2019-10-08 16:00:00 24.2 23 Este 35 Este 0 -- -- 62
2019-10-08 15:00:00 23.7 29 Este 40 Este 0 -- -- 67
2019-10-08 14:00:00 24 31 Este 40 Este 0 -- -- 66
2019-10-08 13:00:00 23.8 28 Este 41 Sudeste 0 -- -- 73
2019-10-08 12:00:00 23.8 29 Este 42 Sudeste 0 -- -- 74
2019-10-08 11:00:00 24.3 21 Este 39 Este 0 -- -- 71
2019-10-08 10:00:00 23.6 22 Este 32 Sudeste 0 -- -- 77
2019-10-08 09:00:00 22.6 16 Nordeste 32 Este 0 -- -- 81
2019-10-08 08:00:00 22.5 19 Nordeste 31 Nordeste 0 -- -- 78
2019-10-08 07:00:00 22.2 22 Nordeste 40 Este 0 -- -- 82
2019-10-08 06:00:00 22.4 28 Nordeste 41 Este 0 -- -- 84
2019-10-08 05:00:00 22.6 32 Este 48 Nordeste 0 -- -- 83
2019-10-08 04:00:00 22.8 30 Nordeste 45 Nordeste 0 -- -- 81
2019-10-08 03:00:00 23.1 19 Nordeste 37 Este 0 -- -- 78
2019-10-08 02:00:00 23.2 24 Nordeste 40 Nordeste 0 -- -- 77
2019-10-08 01:00:00 23.6 31 Este 46 Este 0 -- -- 74
2019-10-08 00:00:00 23.9 29 Nordeste 44 Este 0 -- -- 63
2019-10-07 23:00:00 23.6 32 Nordeste 49 Este 0 -- -- 63
2019-10-07 22:00:00 23.7 28 Este 40 Nordeste 0 -- -- 67
2019-10-07 21:00:00 22.5 10 Este 21 Noroeste 0 -- -- 81
2019-10-07 20:00:00 22.6 16 Oeste 23 Oeste 0 -- -- 85
2019-10-07 19:00:00 23.3 12 Oeste 22 Oeste 0 -- -- 83
2019-10-07 18:00:00 23.7 15 Oeste 24 Oeste 0 -- -- 81
2019-10-07 17:00:00 24.1 17 Oeste 24 Noroeste 0 -- -- 77
2019-10-07 16:00:00 25.4 17 Oeste 23 Oeste 0 -- -- 74
2019-10-07 15:00:00 25.3 13 Oeste 19 Oeste 0 -- -- 75
2019-10-07 14:00:00 25.3 11 Oeste 16 Oeste 0 -- -- 76
2019-10-07 13:00:00 24.5 13 Oeste 29 Noroeste 0 -- -- 78
2019-10-07 12:00:00 23 19 Noroeste 31 Noroeste 0 -- -- 79
2019-10-07 11:00:00 22.6 17 Oeste 35 Noroeste 0 -- -- 81
2019-10-07 10:00:00 21 21 Noroeste 34 Noroeste 0 -- -- 88
2019-10-07 09:00:00 20.4 21 Noroeste 38 Noroeste 0 -- -- 90
2019-10-07 08:00:00 20.2 18 Noroeste 28 Noroeste 0 -- -- 91
2019-10-07 07:00:00 19.5 18 Oeste 29 Noroeste 0 -- -- 91
2019-10-07 06:00:00 19.8 16 Oeste 28 Noroeste 0 -- -- 90
2019-10-07 05:00:00 19.6 20 Oeste 29 Oeste 0 -- -- 89
2019-10-07 04:00:00 20.7 12 Oeste 26 Noroeste 0 -- -- 89
2019-10-07 03:00:00 20.6 9 Oeste 26 Noroeste 0 -- -- 89
2019-10-07 02:00:00 21 12 Noroeste 28 Noroeste 0 -- -- 89
2019-10-07 01:00:00 21.3 11 Oeste 20 Noroeste 0 -- -- 88
2019-10-07 00:00:00 21.2 15 Oeste 24 Noroeste 0 -- -- 87
2019-10-06 23:00:00 21.7 11 Oeste 26 Noroeste 0 -- -- 86
2019-10-06 22:00:00 21.9 12 Oeste 23 Noroeste 0 -- -- 85
2019-10-06 21:00:00 22.1 14 Oeste 22 Noroeste 0 -- -- 84
2019-10-06 20:00:00 22.6 13 Noroeste 17 Noroeste 0 -- -- 82
2019-10-06 19:00:00 23.4 10 Oeste 15 Oeste 0 -- -- 80
2019-10-06 18:00:00 23.8 4 Oeste 8 Oeste 0 -- -- 78
2019-10-06 17:00:00 24.3 3 Oeste 8 Sur 0 -- -- 76
2019-10-06 16:00:00 25.5 4 Sudoeste 9 Sur 0 -- -- 73
2019-10-06 15:00:00 25.5 3 Sudoeste 9 Este 0 -- -- 74
2019-10-06 14:00:00 25.6 3 Sudoeste 9 Este 0 -- -- 72
2019-10-06 13:00:00 25.5 3 Sur 8 Este 0 -- -- 70
2019-10-06 12:00:00 24.3 3 Sudeste 19 Este 0 -- -- 72
2019-10-06 11:00:00 23.4 12 Este 15 Este 0 -- -- 71
2019-10-06 10:00:00 21.6 4 Noroeste 18 Noroeste 0 -- -- 77
2019-10-06 09:00:00 19.5 2 Noroeste 20 Noroeste 0 -- -- 84
2019-10-06 08:00:00 19.2 8 Noroeste 18 Noroeste 0 -- -- 84
2019-10-06 07:00:00 19 10 Noroeste 17 Noroeste 0 -- -- 86
2019-10-06 06:00:00 19.6 9 Noroeste 15 Noroeste 0 -- -- 86
2019-10-06 05:00:00 19.2 10 Noroeste 15 Oeste 0 -- -- 87
2019-10-06 04:00:00 19.5 8 Noroeste 14 Norte 0 -- -- 87
2019-10-06 03:00:00 19.8 9 Noroeste 18 Noroeste 0 -- -- 88
2019-10-06 02:00:00 20.1 10 Noroeste 15 Norte 0 -- -- 87
2019-10-06 01:00:00 20.4 8 Noroeste 13 Oeste 0 -- -- 87
2019-10-06 00:00:00 21 6 Noroeste 16 Noroeste 0 -- -- 86
2019-10-05 23:00:00 21.6 9 Oeste 19 Noroeste 0 -- -- 86
2019-10-05 22:00:00 21.8 14 Noroeste 20 Noroeste 0 -- -- 85
2019-10-05 21:00:00 21.9 13 Oeste 22 Oeste 0 -- -- 84
2019-10-05 20:00:00 22.3 11 Oeste 20 Noroeste 0 -- -- 83
2019-10-05 19:00:00 23 11 Oeste 20 Noroeste 0 -- -- 81
2019-10-05 18:00:00 23.7 15 Oeste 19 Oeste 0 -- -- 79
2019-10-05 17:00:00 24.3 5 Oeste 14 Oeste 0 -- -- 78
2019-10-05 16:00:00 24.5 9 Oeste 13 Oeste 0 -- -- 79
2019-10-05 15:00:00 23.9 9 Noroeste 16 Oeste 0 -- -- 80
2019-10-05 14:00:00 23.2 9 Oeste 21 Oeste 0 -- -- 82
2019-10-05 13:00:00 22.4 11 Oeste 28 Noroeste 0 -- -- 84
2019-10-05 12:00:00 22.2 10 Oeste 18 Oeste 0 -- -- 83
2019-10-05 11:00:00 21.9 14 Oeste 26 Noroeste 0 -- -- 85
2019-10-05 10:00:00 21.1 15 Oeste 25 Noroeste 0 -- -- 86
2019-10-05 09:00:00 20.4 9 Oeste 19 Oeste 0 -- -- 87
2019-10-05 08:00:00 19.9 13 Noroeste 23 Noroeste 0 -- -- 87
2019-10-05 07:00:00 20.1 14 Oeste 23 Noroeste 0 -- -- 88
2019-10-05 06:00:00 20.5 13 Noroeste 18 Noroeste 0 -- -- 88
2019-10-05 05:00:00 20.7 12 Oeste 18 Oeste 0 -- -- 88
2019-10-05 04:00:00 20.8 14 Noroeste 19 Oeste 0 -- -- 88
2019-10-05 03:00:00 21 11 Oeste 19 Noroeste 0 -- -- 88
2019-10-05 02:00:00 21.1 12 Oeste 22 Oeste 0 -- -- 88
2019-10-05 01:00:00 21.4 12 Noroeste 23 Noroeste 0 -- -- 87
2019-10-05 00:00:00 21.7 12 Oeste 20 Noroeste 0 -- -- 87
2019-10-04 23:00:00 21.9 10 Oeste 21 Noroeste 0 -- -- 86
2019-10-04 22:00:00 22 9 Oeste 16 Oeste 0 -- -- 84
2019-10-04 21:00:00 22.2 11 Noroeste 19 Noroeste 0 -- -- 82
2019-10-04 20:00:00 22.5 9 Oeste 18 Noroeste 0 -- -- 80
2019-10-04 19:00:00 23 12 Oeste 18 Noroeste 0 -- -- 79
2019-10-04 18:00:00 23.8 10 Oeste 17 Oeste 0 -- -- 76
2019-10-04 17:00:00 24.5 11 Oeste 17 Oeste 0 -- -- 73
2019-10-04 16:00:00 25.9 12 Oeste 18 Oeste 0 -- -- 72
2019-10-04 15:00:00 25.9 12 Oeste 16 Oeste 0 -- -- 70
2019-10-04 14:00:00 26.6 5 Oeste 10 Sudoeste 0 -- -- 68
2019-10-04 13:00:00 26.2 3 Sur 8 Sudoeste 0 -- -- 64
2019-10-04 12:00:00 27.1 3 Sudoeste 9 Oeste 0 -- -- 57
2019-10-04 11:00:00 25.3 8 Oeste 19 Noroeste 0 -- -- 58
2019-10-04 10:00:00 23.1 11 Noroeste 21 Noroeste 0 -- -- 68
2019-10-04 09:00:00 20.8 8 Noroeste 24 Noroeste 0 -- -- 66
2019-10-04 08:00:00 20.3 12 Noroeste 17 Noroeste 0 -- -- 73
2019-10-04 07:00:00 20.9 10 Noroeste 24 Noroeste 0 -- -- 72
2019-10-04 06:00:00 19.9 9 Noroeste 16 Noroeste 0 -- -- 75
2019-10-04 05:00:00 20.1 10 Oeste 21 Oeste 0 -- -- 83
2019-10-04 04:00:00 20.8 15 Oeste 22 Noroeste 0 -- -- 82
2019-10-04 03:00:00 20.8 11 Oeste 22 Noroeste 0 -- -- 82
2019-10-04 02:00:00 20.7 6 Noroeste 24 Noroeste 0 -- -- 84
2019-10-04 01:00:00 21.5 11 Noroeste 17 Noroeste 0 -- -- 83
2019-10-04 00:00:00 21.8 9 Oeste 17 Noroeste 0 -- -- 80
2019-10-03 23:00:00 22.1 8 Oeste 24 Noroeste 0 -- -- 76
2019-10-03 22:00:00 21.5 13 Oeste 21 Noroeste 0 -- -- 75
2019-10-03 21:00:00 22.4 8 Oeste 17 Oeste 0 -- -- 74
2019-10-03 20:00:00 23.1 4 Oeste 14 Oeste 0 -- -- 72
2019-10-03 19:00:00 23.5 4 Oeste 17 Oeste 0 -- -- 68
2019-10-03 18:00:00 23.8 10 Oeste 17 Oeste 0 -- -- 67
2019-10-03 17:00:00 25 13 Oeste 23 Oeste 0 -- -- 67
2019-10-03 16:00:00 26.1 17 Oeste 24 Oeste 0 -- -- 65
2019-10-03 15:00:00 26.5 14 Oeste 20 Oeste 0 -- -- 67
2019-10-03 14:00:00 27.3 5 Sur 14 Sudeste 0 -- -- 70
2019-10-03 13:00:00 26.8 5 Sudeste 17 Sudeste 0 -- -- 68
2019-10-03 12:00:00 26.5 8 Sudeste 12 Este 0 -- -- 66
2019-10-03 11:00:00 26 6 Sudeste 9 Este 0 -- -- 66
2019-10-03 10:00:00 24.6 7 Este 10 Este 0 -- -- 65
2019-10-03 09:00:00 22.4 8 Norte 14 Norte 0 -- -- 51
2019-10-03 08:00:00 21.5 5 Norte 10 Norte 0 -- -- 65
2019-10-03 07:00:00 21.4 5 Norte 15 Norte 0 -- -- 68
2019-10-03 06:00:00 21.1 10 Norte 15 Noroeste 0 -- -- 70
2019-10-03 05:00:00 22.3 7 Oeste 14 Oeste 0 -- -- 69
2019-10-03 04:00:00 22.9 3 Noroeste 29 Este 0 -- -- 68
2019-10-03 03:00:00 23.3 23 Este 38 Nordeste 0 -- -- 67
2019-10-03 02:00:00 23.8 28 Este 44 Este 0 -- -- 60
2019-10-03 01:00:00 24.4 29 Este 42 Nordeste 0 -- -- 53
2019-10-03 00:00:00 24.8 27 Este 39 Este 0 -- -- 49
2019-10-02 23:00:00 24.8 23 Este 41 Nordeste 0 -- -- 49
2019-10-02 22:00:00 24.7 26 Nordeste 42 Nordeste 0 -- -- 51
2019-10-02 21:00:00 23.9 22 Nordeste 39 Nordeste 0 -- -- 64
2019-10-02 20:00:00 23.4 0 Calma 8 Oeste 0 -- -- 76
2019-10-02 19:00:00 23.9 4 Oeste 15 Oeste 0 -- -- 74
2019-10-02 18:00:00 24.4 10 Oeste 19 Noroeste 0 -- -- 72
2019-10-02 17:00:00 25.3 11 Oeste 23 Oeste 0 -- -- 69
2019-10-02 16:00:00 26.9 12 Oeste 19 Oeste 0 -- -- 67
2019-10-02 15:00:00 26.4 6 Oeste 14 Sudeste 0 -- -- 70
2019-10-02 14:00:00 26 14 Sudeste 28 Este 0 -- -- 74
2019-10-02 13:00:00 24.9 24 Este 30 Este 0 -- -- 74
2019-10-02 12:00:00 25.5 28 Este 35 Este 0 -- -- 71
2019-10-02 11:00:00 26.9 23 Este 32 Este 0 -- -- 52
2019-10-02 10:00:00 25.4 3 Sudeste 11 Oeste 0 -- -- 57
2019-10-02 09:00:00 24.6 5 Sudeste 15 Noroeste 0 -- -- 55
2019-10-02 08:00:00 23 7 Noroeste 13 Norte 0 -- -- 56
2019-10-02 07:00:00 23.3 4 Nordeste 13 Este 0 -- -- 49
2019-10-02 06:00:00 24.5 5 Oeste 42 Norte 0 -- -- 57
2019-10-02 05:00:00 26.1 22 Norte 40 Norte 0 -- -- 40
2019-10-02 04:00:00 24.2 7 Noroeste 25 Norte 0 -- -- 60
2019-10-02 03:00:00 24.9 20 Noroeste 32 Noroeste 0 -- -- 49
2019-10-02 02:00:00 24 4 Este 19 Este 0 -- -- 65
2019-10-02 01:00:00 26.5 8 Sudeste 20 Norte 0 -- -- 50
2019-10-02 00:00:00 27.2 20 Norte 42 Norte 0 -- -- 42
2019-10-01 23:00:00 24.1 26 Noroeste 47 Noroeste 0 -- -- 69
2019-10-01 22:00:00 23.9 24 Noroeste 40 Noroeste 0 -- -- 72
2019-10-01 21:00:00 24.2 18 Noroeste 40 Noroeste 0 -- -- 70
2019-10-01 20:00:00 24.3 18 Oeste 35 Noroeste 0 -- -- 69
2019-10-01 19:00:00 24.3 22 Noroeste 33 Noroeste 0 -- -- 71
2019-10-01 18:00:00 24.3 14 Oeste 32 Noroeste 0 -- -- 73
2019-10-01 17:00:00 25.1 16 Oeste 24 Oeste 0 -- -- 73
2019-10-01 16:00:00 25.7 13 Oeste 21 Noroeste 0 -- -- 75
2019-10-01 15:00:00 25.6 5 Oeste 17 Sudoeste 0 -- -- 76
2019-10-01 14:00:00 24.7 8 Oeste 27 Noroeste 0 -- -- 79
2019-10-01 13:00:00 24.3 15 Oeste 27 Noroeste 0 -- -- 80
2019-10-01 12:00:00 23.2 12 Oeste 19 Noroeste 0 -- -- 85
2019-10-01 11:00:00 22.4 8 Oeste 17 Noroeste 0 -- -- 87
2019-10-01 10:00:00 21.7 2 Sur 9 Oeste 0 -- -- 87
2019-10-01 09:00:00 20.5 4 Oeste 9 Este 0 -- -- 87
2019-10-01 08:00:00 20.2 4 Este 6 Oeste 0 -- -- 88
2019-10-01 07:00:00 19.9 4 Norte 11 Noroeste 0 -- -- 88
2019-10-01 06:00:00 20.4 8 Norte 16 Noroeste 0 -- -- 88
2019-10-01 05:00:00 20.8 10 Noroeste 14 Noroeste 0 -- -- 87
2019-10-01 04:00:00 20.6 8 Norte 13 Norte 0 -- -- 87
2019-10-01 03:00:00 20.3 6 Noroeste 10 Norte 0 -- -- 87
2019-10-01 02:00:00 21.1 6 Norte 13 Norte 0 -- -- 87
2019-10-01 01:00:00 21.6 7 Noroeste 12 Noroeste 0 -- -- 87
2019-10-01 00:00:00 21.8 5 Noroeste 11 Norte 0 -- -- 86
2019-09-30 23:00:00 22.4 5 Oeste 17 Noroeste 0 -- -- 86
2019-09-30 22:00:00 22.4 9 Oeste 18 Noroeste 0 -- -- 85
2019-09-30 21:00:00 22.5 13 Oeste 24 Noroeste 0 -- -- 84
2019-09-30 20:00:00 23 15 Oeste 22 Oeste 0 -- -- 82
2019-09-30 19:00:00 23.3 14 Oeste 20 Oeste 0 -- -- 80
2019-09-30 18:00:00 23.8 6 Sudoeste 20 Oeste 0 -- -- 77
2019-09-30 17:00:00 24.9 9 Oeste 19 Oeste 0 -- -- 73
2019-09-30 16:00:00 26.1 10 Oeste 20 Sudoeste 0 -- -- 71
2019-09-30 15:00:00 26.2 11 Oeste 21 Oeste 0 -- -- 70
2019-09-30 14:00:00 26.2 9 Oeste 18 Oeste 0 -- -- 71
2019-09-30 13:00:00 25.3 9 Oeste 19 Oeste 0 -- -- 77
2019-09-30 12:00:00 23.5 13 Oeste 25 Oeste 0 -- -- 82
2019-09-30 11:00:00 22.6 10 Oeste 22 Sudoeste 0 -- -- 85
2019-09-30 10:00:00 22 4 Oeste 19 Oeste 0 -- -- 86
2019-09-30 09:00:00 21.7 14 Oeste 24 Noroeste 0 -- -- 87
2019-09-30 08:00:00 21.9 13 Noroeste 23 Noroeste 0 -- -- 88
2019-09-30 07:00:00 22 9 Oeste 21 Oeste 0 -- -- 88
2019-09-30 06:00:00 22.1 14 Oeste 23 Oeste 0 -- -- 88
2019-09-30 05:00:00 22.2 18 Oeste 31 Noroeste 0 -- -- 88
2019-09-30 04:00:00 22.3 18 Oeste 28 Noroeste 0 -- -- 87
2019-09-30 03:00:00 22.5 17 Oeste 28 Noroeste 0 -- -- 87
2019-09-30 02:00:00 22.7 18 Noroeste 28 Noroeste 0 -- -- 87
2019-09-30 01:00:00 22.8 16 Oeste 28 Noroeste 0 -- -- 86
2019-09-30 00:00:00 23 16 Oeste 25 Oeste 0 -- -- 85
2019-09-29 23:00:00 23 13 Oeste 21 Oeste 0 -- -- 84
2019-09-29 22:00:00 23.3 9 Oeste 21 Oeste 0 -- -- 83
2019-09-29 21:00:00 23.5 14 Oeste 23 Noroeste 0 -- -- 82
2019-09-29 20:00:00 24.1 14 Oeste 22 Noroeste 0 -- -- 80
2019-09-29 19:00:00 24.9 16 Oeste 24 Noroeste 0 -- -- 77
2019-09-29 18:00:00 25.3 17 Noroeste 23 Oeste 0 -- -- 74
2019-09-29 17:00:00 26.3 5 Oeste 10 Oeste 0 -- -- 71
2019-09-29 16:00:00 27.1 4 Oeste 10 Oeste 0 -- -- 70
2019-09-29 15:00:00 27.6 4 Oeste 9 Sudoeste 0 -- -- 69
2019-09-29 14:00:00 27.8 3 Sudoeste 7 Sudoeste 0 -- -- 70
2019-09-29 13:00:00 26.9 3 Sudoeste 12 Noroeste 0 -- -- 74
2019-09-29 12:00:00 25.6 4 Oeste 17 Este 0 -- -- 79
2019-09-29 11:00:00 24.2 11 Este 27 Este 0 -- -- 83
2019-09-29 10:00:00 23.4 13 Este 28 Nordeste 0 -- -- 84
2019-09-29 09:00:00 22.8 19 Este 28 Este 0 -- -- 84
2019-09-29 08:00:00 22 6 Este 13 Este 0 -- -- 85
2019-09-29 07:00:00 22 6 Norte 10 Norte 0 -- -- 84
2019-09-29 06:00:00 22 2 Norte 9 Noroeste 0 -- -- 85
2019-09-29 05:00:00 22.2 6 Noroeste 9 Noroeste 0 -- -- 85
2019-09-29 04:00:00 22.4 3 Noroeste 7 Norte 0 -- -- 84
2019-09-29 03:00:00 22.5 3 Norte 8 Nordeste 0 -- -- 84
2019-09-29 02:00:00 22.9 8 Nordeste 17 Este 0 -- -- 83
2019-09-29 01:00:00 23 3 Nordeste 9 Norte 0 -- -- 83
2019-09-29 00:00:00 23.1 4 Norte 8 Norte 0 -- -- 82
2019-09-28 23:00:00 23.3 5 Norte 18 Este 0 -- -- 81
2019-09-28 22:00:00 23.6 13 Este 22 Este 0 -- -- 79
2019-09-28 21:00:00 23.5 9 Este 25 Este 0 -- -- 79
2019-09-28 20:00:00 24 18 Este 26 Sudeste 0 -- -- 79
2019-09-28 19:00:00 23.9 19 Este 39 Este 0 -- -- 81
2019-09-28 18:00:00 23.7 32 Este 45 Este 0 -- -- 82
2019-09-28 17:00:00 23.9 35 Este 52 Este 0 -- -- 80
2019-09-28 16:00:00 24.6 34 Este 46 Sudeste 0 -- -- 80
2019-09-28 15:00:00 25.9 28 Este 38 Este 0 -- -- 73
2019-09-28 14:00:00 27.3 3 Sudoeste 8 Sudoeste 0 -- -- 72
2019-09-28 13:00:00 27 4 Sur 11 Este 0 -- -- 74
2019-09-28 12:00:00 26.1 5 Sudeste 9 Sudeste 0 -- -- 78
2019-09-28 11:00:00 24.4 0 Calma 10 Este 0 -- -- 82
2019-09-28 10:00:00 23.2 3 Sudeste 8 Este 0 -- -- 84
2019-09-28 09:00:00 22.3 5 Oeste 10 Noroeste 0 -- -- 84
2019-09-28 08:00:00 21.6 8 Este 21 Este 0 -- -- 83
2019-09-28 07:00:00 21.3 10 Este 15 Este 0 -- -- 84
2019-09-28 06:00:00 20.9 4 Noroeste 6 Noroeste 0 -- -- 84
2019-09-28 05:00:00 21.5 3 Este 7 Este 0 -- -- 85
2019-09-28 04:00:00 21.3 8 Noroeste 13 Oeste 0 -- -- 86
2019-09-28 03:00:00 21.6 5 Noroeste 32 Noroeste 0 -- -- 87
2019-09-28 02:00:00 22.1 22 Noroeste 28 Noroeste 0 -- -- 87
2019-09-28 01:00:00 22.3 12 Oeste 27 Noroeste 0 -- -- 87
2019-09-28 00:00:00 22.6 14 Oeste 24 Noroeste 0 -- -- 86
2019-09-27 23:00:00 22.7 12 Oeste 21 Oeste 0 -- -- 85
2019-09-27 22:00:00 22.7 10 Oeste 18 Noroeste 0 -- -- 84
2019-09-27 21:00:00 23 10 Oeste 20 Noroeste 0 -- -- 83
2019-09-27 20:00:00 23.5 11 Oeste 19 Noroeste 0 -- -- 80
2019-09-27 19:00:00 24.2 12 Oeste 19 Noroeste 0 -- -- 77
2019-09-27 18:00:00 25 12 Oeste 18 Oeste 0 -- -- 75
2019-09-27 17:00:00 25.8 12 Oeste 18 Oeste 0 -- -- 72
2019-09-27 16:00:00 26.7 6 Oeste 15 Oeste 0 -- -- 70
2019-09-27 15:00:00 26.9 5 Oeste 11 Sudoeste 0 -- -- 70
2019-09-27 14:00:00 27.2 4 Oeste 9 Sudoeste 0 -- -- 70
2019-09-27 13:00:00 26.7 5 Sudoeste 10 Sur 0 -- -- 72
2019-09-27 12:00:00 26 3 Sur 8 Este 0 -- -- 76
2019-09-27 11:00:00 24.6 4 Sudeste 12 Este 0 -- -- 83
2019-09-27 10:00:00 23.1 6 Este 13 Este 0 -- -- 86
2019-09-27 09:00:00 21.7 8 Nordeste 10 Nordeste 0 -- -- 86
2019-09-27 08:00:00 22 6 Nordeste 10 Nordeste 0 -- -- 86
2019-09-27 07:00:00 22.3 4 Este 10 Nordeste 0 -- -- 86
2019-09-27 06:00:00 21.8 4 Norte 9 Norte 0 -- -- 86
2019-09-27 05:00:00 21.8 5 Norte 8 Norte 0 -- -- 86
2019-09-27 04:00:00 21.8 4 Norte 8 Norte 0 -- -- 85
2019-09-27 03:00:00 22.2 5 Norte 7 Norte 0 -- -- 85
2019-09-27 02:00:00 22.5 3 Norte 9 Nordeste 0 -- -- 84
2019-09-27 01:00:00 22.8 5 Nordeste 9 Nordeste 0 -- -- 83
2019-09-27 00:00:00 22.6 2 Norte 6 Norte 0 -- -- 82
2019-09-26 23:00:00 23 3 Norte 8 Nordeste 0 -- -- 82
2019-09-26 22:00:00 23.2 3 Este 15 Este 0 -- -- 83
2019-09-26 21:00:00 23.3 10 Este 26 Este 0 -- -- 83
2019-09-26 20:00:00 23.5 20 Este 37 Este 0 -- -- 83
2019-09-26 19:00:00 23.5 29 Este 42 Este 0 -- -- 84
2019-09-26 18:00:00 23.6 31 Este 42 Este 0 -- -- 84
2019-09-26 17:00:00 23.8 33 Este 44 Este 0 -- -- 82
2019-09-26 16:00:00 24.3 36 Este 54 Este 0 -- -- 80
2019-09-26 15:00:00 24.8 39 Este 52 Este 0 -- -- 77
2019-09-26 14:00:00 25.1 37 Este 51 Este 0 -- -- 75
2019-09-26 13:00:00 25.6 31 Este 44 Este 0 -- -- 72
2019-09-26 12:00:00 25.6 29 Este 42 Sudeste 0 -- -- 72
2019-09-26 11:00:00 25.5 17 Este 34 Este 0 -- -- 73
2019-09-26 10:00:00 24.5 18 Nordeste 41 Nordeste 0 -- -- 76
2019-09-26 09:00:00 23.4 25 Nordeste 41 Este 0 -- -- 77
2019-09-26 08:00:00 22.8 3 Este 19 Este 0 -- -- 78
2019-09-26 07:00:00 22.8 2 Nordeste 18 Noroeste 0 -- -- 78
2019-09-26 06:00:00 22.8 6 Noroeste 18 Noroeste 0 -- -- 79
2019-09-26 05:00:00 23.1 8 Noroeste 26 Este 0 -- -- 81
2019-09-26 04:00:00 22.9 3 Sudeste 22 Este 0 -- -- 82
2019-09-26 03:00:00 22.9 3 Norte 21 Este 0 -- -- 85
2019-09-26 02:00:00 23.3 12 Este 20 Este 0 -- -- 85
2019-09-26 01:00:00 23.1 8 Nordeste 15 Este 0 -- -- 84
2019-09-26 00:00:00 23.2 12 Este 19 Este 0 -- -- 84
2019-09-25 23:00:00 23.5 9 Este 18 Este 0 -- -- 83
2019-09-25 22:00:00 23.6 3 Este 7 Sudeste 0 -- -- 81
2019-09-25 21:00:00 23.8 0 Calma 6 Oeste 0 -- -- 79
2019-09-25 20:00:00 24.2 5 Oeste 13 Noroeste 0 -- -- 77
2019-09-25 19:00:00 24.8 9 Oeste 24 Oeste 0 -- -- 76
2019-09-25 18:00:00 25.3 9 Oeste 15 Noroeste 0 -- -- 75
2019-09-25 17:00:00 26.1 6 Oeste 17 Oeste 0 -- -- 71
2019-09-25 16:00:00 26.9 10 Oeste 19 Noroeste 0 -- -- 72
2019-09-25 15:00:00 26.6 9 Oeste 15 Oeste 0 -- -- 71
2019-09-25 14:00:00 27.4 4 Oeste 8 Sudeste 0 -- -- 70
2019-09-25 13:00:00 26.7 4 Sur 8 Sur 0 -- -- 72
2019-09-25 12:00:00 25.9 4 Oeste 16 Oeste 0 -- -- 75
2019-09-25 11:00:00 24.5 8 Oeste 19 Noroeste 0 -- -- 81
2019-09-25 10:00:00 23 6 Oeste 16 Noroeste 0 -- -- 85
2019-09-25 09:00:00 21.5 5 Noroeste 14 Noroeste 0 -- -- 85
2019-09-25 08:00:00 21 5 Norte 12 Norte 0 -- -- 85
2019-09-25 07:00:00 21.1 7 Noroeste 22 Noroeste 0 -- -- 84
2019-09-25 06:00:00 21.5 16 Noroeste 27 Noroeste 0 -- -- 84
2019-09-25 05:00:00 21.7 18 Oeste 30 Noroeste 0 -- -- 84
2019-09-25 04:00:00 22 14 Oeste 32 Noroeste 0 -- -- 83
2019-09-25 03:00:00 22.1 19 Oeste 30 Noroeste 0 -- -- 82
2019-09-25 02:00:00 22.2 16 Oeste 28 Oeste 0 -- -- 80
2019-09-25 01:00:00 22.3 21 Oeste 33 Oeste 0 -- -- 78
2019-09-25 00:00:00 22.4 24 Oeste 32 Oeste 0 -- -- 76
2019-09-24 23:00:00 22.6 23 Oeste 30 Oeste 0 -- -- 76
2019-09-24 22:00:00 22.7 15 Oeste 27 Oeste 0 -- -- 74
2019-09-24 21:00:00 23 22 Oeste 28 Noroeste 0 -- -- 72
2019-09-24 20:00:00 23.1 21 Oeste 28 Noroeste 0 -- -- 70
2019-09-24 19:00:00 24 17 Oeste 27 Noroeste 0 -- -- 69
2019-09-24 18:00:00 24.7 14 Oeste 22 Oeste 0 -- -- 66
2019-09-24 17:00:00 25.7 11 Oeste 24 Oeste 0 -- -- 64
2019-09-24 16:00:00 26.7 9 Oeste 21 Oeste 0 -- -- 59
2019-09-24 15:00:00 27.8 9 Oeste 21 Sudoeste 0 -- -- 58
2019-09-24 14:00:00 28 9 Oeste 20 Oeste 0 -- -- 57
2019-09-24 13:00:00 27.5 5 Oeste 13 Oeste 0 -- -- 60
2019-09-24 12:00:00 27.2 4 Oeste 16 Oeste 0 -- -- 62
2019-09-24 11:00:00 25.9 10 Oeste 26 Noroeste 0 -- -- 52
2019-09-24 10:00:00 24.3 13 Noroeste 23 Noroeste 0 -- -- 56
2019-09-24 09:00:00 23.1 11 Oeste 25 Noroeste 0 -- -- 70
2019-09-24 08:00:00 22.2 15 Oeste 27 Noroeste 0 -- -- 71
2019-09-24 07:00:00 21.4 10 Noroeste 18 Noroeste 0 -- -- 66
2019-09-24 06:00:00 21.7 9 Noroeste 17 Norte 0 -- -- 70
2019-09-24 05:00:00 21.9 8 Noroeste 13 Norte 0 -- -- 71
2019-09-24 04:00:00 22.1 4 Norte 10 Norte 0 -- -- 68
2019-09-24 03:00:00 22.2 6 Norte 10 Noroeste 0 -- -- 68
2019-09-24 02:00:00 22.3 5 Noroeste 12 Norte 0 -- -- 67
2019-09-24 01:00:00 22.3 5 Norte 9 Norte 0 -- -- 65
2019-09-24 00:00:00 22.4 5 Noroeste 9 Norte 0 -- -- 65
2019-09-23 23:00:00 22.3 6 Noroeste 9 Noroeste 0 -- -- 69
2019-09-23 22:00:00 22.5 5 Norte 12 Noroeste 0 -- -- 74
2019-09-23 21:00:00 23.3 2 Noroeste 4 Noroeste 0 -- -- 75
2019-09-23 20:00:00 23.6 0 Calma 6 Sudeste 0 -- -- 74
2019-09-23 19:00:00 23.9 3 Sudeste 9 Este 0 -- -- 74
2019-09-23 18:00:00 24.7 4 Sudeste 12 Este 0 -- -- 72
2019-09-23 17:00:00 25.4 6 Sudeste 13 Este 0 -- -- 70
2019-09-23 16:00:00 26.7 5 Este 19 Este 0 -- -- 68
2019-09-23 15:00:00 26.3 10 Este 27 Este 0 -- -- 65
2019-09-23 14:00:00 25.7 22 Este 27 Este 0 -- -- 64
2019-09-23 13:00:00 25.4 19 Este 23 Este 0 -- -- 74
2019-09-23 12:00:00 24.9 12 Este 21 Este 0 -- -- 78
2019-09-23 11:00:00 24.1 5 Noroeste 17 Este 0 -- -- 81
2019-09-23 10:00:00 23.9 6 Este 22 Este 0 -- -- 83
2019-09-23 09:00:00 22.5 4 Este 18 Este 0 -- -- 84
2019-09-23 08:00:00 21.5 10 Este 20 Este 0 -- -- 84
2019-09-23 07:00:00 22 13 Noroeste 20 Noroeste 0 -- -- 83
2019-09-23 06:00:00 22.3 7 Oeste 16 Oeste 0 -- -- 83
2019-09-23 05:00:00 22.5 4 Sudeste 16 Oeste 0 -- -- 83
2019-09-23 04:00:00 22.5 4 Sur 19 Oeste 0 -- -- 83
2019-09-23 03:00:00 22.5 12 Oeste 22 Oeste 0 -- -- 83
2019-09-23 02:00:00 22.6 8 Oeste 20 Oeste 0 -- -- 81
2019-09-23 01:00:00 22.6 12 Oeste 30 Oeste 0 -- -- 80
2019-09-23 00:00:00 23 16 Oeste 32 Sudoeste 0 -- -- 79
2019-09-22 23:00:00 23.5 18 Oeste 37 Oeste 0 -- -- 79
2019-09-22 22:00:00 23.9 27 Oeste 44 Oeste 0 -- -- 78
2019-09-22 21:00:00 24.1 21 Noroeste 35 Noroeste 0 -- -- 78
2019-09-22 20:00:00 24.5 18 Oeste 31 Noroeste 0 -- -- 77
2019-09-22 19:00:00 24.3 19 Noroeste 32 Oeste 0 -- -- 77
2019-09-22 18:00:00 24.6 21 Oeste 37 Sudoeste 0 -- -- 78
2019-09-22 17:00:00 25.2 18 Oeste 35 Oeste 0 -- -- 75
2019-09-22 16:00:00 25.4 18 Oeste 35 Oeste 0 -- -- 74
2019-09-22 15:00:00 25.7 18 Oeste 38 Oeste 0 -- -- 72
2019-09-22 14:00:00 26.1 22 Oeste 36 Sudoeste 0 -- -- 70
2019-09-22 13:00:00 26.3 21 Oeste 42 Oeste 0 -- -- 70
2019-09-22 12:00:00 26.4 18 Oeste 32 Oeste 0 -- -- 70
2019-09-22 11:00:00 25.6 18 Oeste 49 Noroeste 0 -- -- 74
2019-09-22 10:00:00 24.3 33 Noroeste 44 Noroeste 0 -- -- 79
2019-09-22 09:00:00 23.4 27 Oeste 43 Noroeste 0 -- -- 81
2019-09-22 08:00:00 22.8 29 Oeste 40 Oeste 0 -- -- 82
2019-09-22 07:00:00 22.7 24 Oeste 45 Oeste 0 -- -- 82
2019-09-22 06:00:00 22.9 17 Oeste 33 Sudoeste 0 -- -- 81
2019-09-22 05:00:00 22.8 17 Oeste 32 Sudoeste 0 -- -- 81
2019-09-22 04:00:00 23 9 Sur 27 Oeste 0 -- -- 81
2019-09-22 03:00:00 23 13 Oeste 29 Oeste 0 -- -- 84
2019-09-22 02:00:00 23.5 13 Oeste 26 Oeste 0 -- -- 86
2019-09-22 01:00:00 23.6 8 Oeste 19 Oeste 0 -- -- 85
2019-09-22 00:00:00 23.8 6 Oeste 17 Oeste 0 -- -- 85
2019-09-21 23:00:00 24.1 4 Oeste 18 Sudoeste 0 -- -- 84
2019-09-21 22:00:00 24.3 9 Oeste 19 Sudoeste 0 -- -- 83
2019-09-21 21:00:00 24.5 13 Oeste 22 Noroeste 0 -- -- 82
2019-09-21 20:00:00 24.9 16 Oeste 23 Oeste 0 -- -- 80
2019-09-21 19:00:00 25.5 14 Oeste 24 Oeste 0 -- -- 77
2019-09-21 18:00:00 26.3 10 Oeste 19 Oeste 0 -- -- 74
2019-09-21 17:00:00 26.9 13 Oeste 20 Oeste 0 -- -- 72
2019-09-21 16:00:00 26.6 8 Oeste 19 Oeste 0 -- -- 75
2019-09-21 15:00:00 27.5 4 Sudoeste 13 Oeste 0 -- -- 71
2019-09-21 14:00:00 28.7 9 Sudoeste 15 Oeste 0 -- -- 68
2019-09-21 13:00:00 27.1 3 Oeste 9 Oeste 0 -- -- 70
2019-09-21 12:00:00 26.9 4 Oeste 10 Oeste 0 -- -- 70
2019-09-21 11:00:00 26.4 7 Oeste 10 Oeste 0 -- -- 72
2019-09-21 10:00:00 24.4 3 Oeste 8 Noroeste 0 -- -- 76
2019-09-21 09:00:00 23.6 5 Norte 9 Norte 0 -- -- 75
2019-09-21 08:00:00 23.5 5 Norte 9 Noroeste 0 -- -- 75
2019-09-21 07:00:00 23.4 4 Noroeste 12 Norte 0 -- -- 76
2019-09-21 06:00:00 23.7 9 Norte 12 Norte 0 -- -- 76
2019-09-21 05:00:00 24 9 Oeste 16 Noroeste 0 -- -- 75
2019-09-21 04:00:00 24 5 Norte 13 Este 0 -- -- 73
2019-09-21 03:00:00 24.4 6 Este 34 Nordeste 0 -- -- 73
2019-09-21 02:00:00 24.3 17 Norte 40 Nordeste 0 -- -- 75
2019-09-21 01:00:00 24.3 13 Nordeste 27 Nordeste 0 -- -- 77
2019-09-21 00:00:00 24.5 20 Nordeste 41 Este 0 -- -- 78
2019-09-20 23:00:00 24.7 18 Nordeste 50 Nordeste 0 -- -- 76
2019-09-20 22:00:00 24.7 21 Nordeste 59 Nordeste 0 -- -- 76
2019-09-20 21:00:00 24.9 32 Este 55 Nordeste 0 -- -- 75
2019-09-20 20:00:00 25 31 Nordeste 56 Nordeste 0 -- -- 73
2019-09-20 19:00:00 25.4 30 Nordeste 52 Nordeste 0 -- -- 70
2019-09-20 18:00:00 25.6 28 Nordeste 50 Este 0 -- -- 70
2019-09-20 17:00:00 26.1 27 Nordeste 51 Nordeste 0 -- -- 69
2019-09-20 16:00:00 26.3 32 Este 50 Este 0 -- -- 67
2019-09-20 15:00:00 26.7 22 Este 41 Este 0 -- -- 67
2019-09-20 14:00:00 26 32 Este 48 Este 0 -- -- 68
2019-09-20 13:00:00 26.3 18 Nordeste 52 Este 0 -- -- 68
2019-09-20 12:00:00 25.5 17 Nordeste 39 Nordeste 0 -- -- 71
2019-09-20 11:00:00 25.6 12 Nordeste 53 Este 0 -- -- 71
2019-09-20 10:00:00 24.6 31 Nordeste 50 Este 0 -- -- 69
2019-09-20 09:00:00 23.6 11 Norte 28 Norte 0 -- -- 73
2019-09-20 08:00:00 22.9 5 Nordeste 26 Este 0 -- -- 79
2019-09-20 07:00:00 23.2 4 Sudeste 26 Nordeste 0 -- -- 80
2019-09-20 06:00:00 23.3 7 Norte 17 Norte 0 -- -- 81
2019-09-20 05:00:00 23.5 9 Norte 21 Nordeste 0 -- -- 81
2019-09-20 04:00:00 23.8 8 Nordeste 17 Nordeste 0 -- -- 81
2019-09-20 03:00:00 23.7 5 Nordeste 19 Este 0 -- -- 81
2019-09-20 02:00:00 23.8 6 Nordeste 26 Este 0 -- -- 81
2019-09-20 01:00:00 23.8 11 Nordeste 22 Nordeste 0 -- -- 80
2019-09-20 00:00:00 23.9 18 Este 30 Este 0 -- -- 80
2019-09-19 23:00:00 24.1 6 Nordeste 18 Nordeste 0 -- -- 78
2019-09-19 22:00:00 24.3 6 Nordeste 18 Nordeste 0 -- -- 75
2019-09-19 21:00:00 24.5 15 Nordeste 30 Este 0 -- -- 74
2019-09-19 20:00:00 24.5 22 Este 28 Este 0 -- -- 79
2019-09-19 19:00:00 24.7 18 Este 24 Este 0 -- -- 80
2019-09-19 18:00:00 24.9 18 Este 24 Este 0 -- -- 78
2019-09-19 17:00:00 25.7 13 Sudeste 21 Sudeste 0 -- -- 74
2019-09-19 16:00:00 26.8 5 Sudeste 11 Sudeste 0 -- -- 73
2019-09-19 15:00:00 26.3 5 Sur 12 Sur 0 -- -- 75
2019-09-19 14:00:00 25.7 5 Sur 12 Sur 0 -- -- 79
2019-09-19 13:00:00 24.4 7 Sur 12 Sur 0 -- -- 80
2019-09-19 12:00:00 25.2 5 Sur 9 Sudeste 0 -- -- 78
2019-09-19 11:00:00 26 3 Sudoeste 9 Oeste 0 -- -- 80
2019-09-19 10:00:00 24.4 4 Sur 22 Este 0 -- -- 81
2019-09-19 09:00:00 23.9 17 Este 22 Este 0 -- -- 81
2019-09-19 08:00:00 23.3 14 Este 22 Este 0 -- -- 79
2019-09-19 07:00:00 23.3 10 Este 17 Norte 0 -- -- 76
2019-09-19 06:00:00 23.1 8 Norte 17 Norte 0 -- -- 78
2019-09-19 05:00:00 22.8 11 Noroeste 26 Noroeste 0 -- -- 85
2019-09-19 04:00:00 23.1 16 Noroeste 23 Noroeste 0 -- -- 85
2019-09-19 03:00:00 23.4 11 Oeste 20 Noroeste 0 -- -- 85
2019-09-19 02:00:00 23.6 11 Oeste 19 Noroeste 0 -- -- 85
2019-09-19 01:00:00 23.7 9 Oeste 20 Noroeste 0 -- -- 84
2019-09-19 00:00:00 23.9 10 Oeste 20 Noroeste 0 -- -- 84
2019-09-18 23:00:00 24.1 12 Oeste 21 Noroeste 0 -- -- 83
2019-09-18 22:00:00 24.2 9 Oeste 17 Noroeste 0 -- -- 82
2019-09-18 21:00:00 24.5 12 Oeste 18 Oeste 0 -- -- 80
2019-09-18 20:00:00 25 11 Oeste 18 Oeste 0 -- -- 78
2019-09-18 19:00:00 25.5 11 Oeste 22 Oeste 0 -- -- 77
2019-09-18 18:00:00 26.4 10 Oeste 20 Oeste 0 -- -- 74
2019-09-18 17:00:00 27 8 Oeste 19 Oeste 0 -- -- 71
2019-09-18 16:00:00 27.9 6 Oeste 20 Sudoeste 0 -- -- 68
2019-09-18 15:00:00 28.4 9 Oeste 21 Oeste 0 -- -- 66
2019-09-18 14:00:00 28.3 11 Oeste 23 Oeste 0 -- -- 67
2019-09-18 13:00:00 27.7 13 Oeste 19 Oeste 0 -- -- 71
2019-09-18 12:00:00 26.9 10 Oeste 16 Noroeste 0 -- -- 73
2019-09-18 11:00:00 26 9 Oeste 22 Noroeste 0 -- -- 79
2019-09-18 10:00:00 24.5 13 Noroeste 22 Noroeste 0 -- -- 84
2019-09-18 09:00:00 23.7 11 Noroeste 27 Noroeste 0 -- -- 86
2019-09-18 08:00:00 23.3 12 Noroeste 17 Oeste 0 -- -- 85
2019-09-18 07:00:00 22.9 9 Noroeste 16 Noroeste 0 -- -- 84
2019-09-18 06:00:00 23.3 9 Noroeste 23 Noroeste 0 -- -- 82
2019-09-18 05:00:00 23.3 14 Noroeste 21 Noroeste 0 -- -- 81
2019-09-18 04:00:00 23.4 8 Noroeste 13 Oeste 0 -- -- 80
2019-09-18 03:00:00 23.6 6 Noroeste 10 Noroeste 0 -- -- 76
2019-09-18 02:00:00 24.1 4 Norte 12 Este 0 -- -- 74
2019-09-18 01:00:00 24.2 5 Nordeste 9 Norte 0 -- -- 70
2019-09-18 00:00:00 24.4 3 Noroeste 14 Nordeste 0 -- -- 72
2019-09-17 23:00:00 25.2 8 Norte 26 Nordeste 0 -- -- 64
2019-09-17 22:00:00 25 12 Norte 31 Norte 0 -- -- 68
2019-09-17 21:00:00 24.8 24 Este 36 Nordeste 0 -- -- 72